Wavelength — 2BKW6 — position and weather

sailwx.info

Track history (hours):
 
Tides and Currents Weather Stations Pressure Air Temp Water Temp Dewpoint Dewpoint Depression Visibility Wind Speed Wind Dir Waves Ship Positions

Wavelength

Last reported at 2018-Jul-20 19:38 UTC. Time now 2018-Jul-21 09:28 UTC.
Position N 39°58' E 023°55'.

Length 14 m; draft 2 m.

Type: Sailing vessel. MMSI: 235067012.

Date/timePositionNaut miles runAvg speedWind from/ knotsBaromVisibWave heightAir tempDewpointWater temp
2018-Jul-20 19:38N 39°58' E 023°55'0 0.1
2018-Jul-20 19:27N 39°58' E 023°55'0 0.0
2018-Jul-20 18:58N 39°58' E 023°55'0 0.1
2018-Jul-20 18:29N 39°58' E 023°55'0 0.0
2018-Jul-20 18:00N 39°58' E 023°55'0 0.0
2018-Jul-20 17:30N 39°58' E 023°55'0 0.0
2018-Jul-20 16:58N 39°58' E 023°55'2 4.8
2018-Jul-20 16:30N 39°56' E 023°56'3 3.7
2018-Jul-20 15:48N 39°55' E 023°59'1 2.2
2018-Jul-20 15:30N 39°56' E 023°59'1 2.5
2018-Jul-20 15:00N 39°56' E 024°01'1 3.0
2018-Jul-20 14:30N 39°57' E 024°02'3 5.9
2018-Jul-20 14:00N 39°59' E 024°00'3 5.9
2018-Jul-20 13:30N 40°00' E 024°04'3 5.7
2018-Jul-20 13:00N 40°02' E 024°01'3 5.2
2018-Jul-20 12:30N 40°04' E 024°03'3 6.5
2018-Jul-20 12:00N 40°06' E 024°07'3 6.0
2018-Jul-20 11:30N 40°07' E 024°11'2 4.6
2018-Jul-20 11:00N 40°07' E 024°14'2 4.1
2018-Jul-20 10:30N 40°09' E 024°16'1 2.7
2018-Jul-20 10:00N 40°10' E 024°16'2 4.8
2018-Jul-20 09:30N 40°11' E 024°14'2 4.6
2018-Jul-20 09:00N 40°13' E 024°12'3 5.1
2018-Jul-20 08:30N 40°15' E 024°10'2 3.9
2018-Jul-20 08:00N 40°16' E 024°08'2 3.9
2018-Jul-20 07:30N 40°16' E 024°06'2 4.7
2018-Jul-20 07:00N 40°17' E 024°02'1 2.8
2018-Jul-20 06:30N 40°18' E 024°01'2 4.3
2018-Jul-20 06:00N 40°19' E 023°59'2 4.2
2018-Jul-20 05:30N 40°20' E 023°56'1 0.0
2018-Jul-19 11:59N 40°20' E 023°55'0 0.0
2018-Jul-19 11:16N 40°20' E 023°55'0 0.0
2018-Jul-19 10:59N 40°20' E 023°55'0 0.1
2018-Jul-19 10:27N 40°20' E 023°55'0 0.0
2018-Jul-19 10:00N 40°20' E 023°55'0 0.0
2018-Jul-19 09:30N 40°20' E 023°55'0 0.3
2018-Jul-19 09:00N 40°20' E 023°55'2 3.9
2018-Jul-19 08:30N 40°20' E 023°53'3 6.8
2018-Jul-19 08:00N 40°18' E 023°50'3 6.8
2018-Jul-19 07:30N 40°15' E 023°47'3 5.5
2018-Jul-19 07:00N 40°13' E 023°46'1 0.0
2018-Jul-18 13:30N 40°12' E 023°47'2 3.2
2018-Jul-18 13:00N 40°12' E 023°49'3 5.6
2018-Jul-18 12:30N 40°11' E 023°53'3 5.4
2018-Jul-18 12:00N 40°10' E 023°56'3 5.3
2018-Jul-18 11:29N 40°08' E 023°59'4 3.8
2018-Jul-18 10:30N 40°06' E 024°02'3 5.5
2018-Jul-18 10:01N 40°03' E 024°05'3 6.3
2018-Jul-18 09:30N 40°01' E 024°08'3 5.9
2018-Jul-18 09:00N 39°59' E 024°05'3 6.4
2018-Jul-18 08:30N 39°57' E 024°02'3 5.4
2018-Jul-18 07:54N 39°56' E 023°58'2 5.4
2018-Jul-18 07:30N 39°57' E 023°55'2 0.1
2018-Jul-17 13:46N 39°58' E 023°55'0 0.0
2018-Jul-17 13:27N 39°58' E 023°55'0 0.4
2018-Jul-17 13:00N 39°58' E 023°55'3 5.3
2018-Jul-17 12:30N 39°55' E 023°55'3 6.2
2018-Jul-17 11:59N 39°52' E 023°56'5 6.0
2018-Jul-17 11:04N 39°47' E 023°57'0 7.0
2018-Jul-17 11:00N 39°47' E 023°58'2 4.9
2018-Jul-17 10:30N 39°44' E 023°58'3 5.1
2018-Jul-17 10:00N 39°42' E 023°59'3 5.4
2018-Jul-17 09:30N 39°39' E 023°60'2 4.9
2018-Jul-17 09:00N 39°37' E 024°01'3 5.3
2018-Jul-17 08:26N 39°34' E 024°01'4 5.8
2018-Jul-17 07:47N 39°30' E 024°02'1 5.1
2018-Jul-17 07:30N 39°29' E 024°03'3 5.3
2018-Jul-17 06:59N 39°26' E 024°04'4 0.2
2018-Jul-16 12:06N 39°22' E 024°05'0 3.0
2018-Jul-16 11:59N 39°22' E 024°05'2 4.9
2018-Jul-16 11:30N 39°21' E 024°02'3 6.0
2018-Jul-16 11:00N 39°18' E 024°01'5 5.2
2018-Jul-16 10:06N 39°14' E 023°58'1 6.8
2018-Jul-16 09:59N 39°13' E 023°57'4 7.4
2018-Jul-16 09:30N 39°10' E 023°55'3 0.1
2018-Jul-15 10:14N 39°09' E 023°52'0 0.2
2018-Jul-15 10:01N 39°09' E 023°52'1 2.4
2018-Jul-15 09:30N 39°08' E 023°51'2 4.6
2018-Jul-15 09:00N 39°09' E 023°48'3 5.8
2018-Jul-15 08:30N 39°08' E 023°44'0 0.0
2018-Jul-13 14:13N 39°07' E 023°44'3 4.4
2018-Jul-13 13:30N 39°10' E 023°47'3 5.6
2018-Jul-13 13:01N 39°12' E 023°49'3 5.2
2018-Jul-13 12:30N 39°14' E 023°51'2 4.9
2018-Jul-13 12:00N 39°16' E 023°53'3 5.2
2018-Jul-13 11:30N 39°18' E 023°55'2 3.4
2018-Jul-13 11:00N 39°19' E 023°57'1 2.2
2018-Jul-13 10:30N 39°20' E 023°58'1 2.0
2018-Jul-13 10:01N 39°20' E 023°59'2 3.1
2018-Jul-13 09:30N 39°21' E 024°01'1 2.2
2018-Jul-13 08:52N 39°22' E 024°02'1 1.5
2018-Jul-13 08:30N 39°22' E 024°03'3 0.2
2018-Jul-12 15:32N 39°23' E 024°07'0 5.3
2018-Jul-12 15:30N 39°23' E 024°07'11 5.1
2018-Jul-12 13:20N 39°31' E 024°17'2 5.4
2018-Jul-12 12:59N 39°33' E 024°18'3 5.4
2018-Jul-12 12:30N 39°35' E 024°21'3 5.1
2018-Jul-12 12:00N 39°37' E 024°23'3 5.4
2018-Jul-12 11:29N 39°39' E 024°25'3 5.0
2018-Jul-12 10:59N 39°40' E 024°28'2 3.2
2018-Jul-12 10:30N 39°42' E 024°29'2 4.1
2018-Jul-12 10:00N 39°43' E 024°31'3 5.2
2018-Jul-12 09:30N 39°44' E 024°34'3 5.2
2018-Jul-12 09:00N 39°45' E 024°37'5 5.1
2018-Jul-12 08:05N 39°47' E 024°43'0 4.2
2018-Jul-12 08:00N 39°47' E 024°43'3 3.3
2018-Jul-12 07:05N 39°48' E 024°47'0 3.1
2018-Jul-12 07:00N 39°48' E 024°47'3 3.4
2018-Jul-12 05:59N 39°49' E 024°51'3 5.2
2018-Jul-12 05:30N 39°50' E 024°54'3 5.9
2018-Jul-12 05:00N 39°51' E 024°58'2 4.8
2018-Jul-12 04:30N 39°52' E 025°01'2 3.6
2018-Jul-12 04:00N 39°52' E 025°03'  
Track history (hours):
 
Tides and Currents Weather Stations Pressure Air Temp Water Temp Dewpoint Dewpoint Depression Visibility Wind Speed Wind Dir Waves Ship Positions

Wavelength

Last reported at 2018-Jul-20 19:38 UTC. Time now 2018-Jul-21 09:28 UTC.
Position N 39°58' E 023°55'.

Length 14 m; draft 2 m.

Type: Sailing vessel. MMSI: 235067012.

Date/timePositionNaut miles runAvg speedWind from/ knotsBaromVisibWave heightAir tempDewpointWater temp
2018-Jul-20 19:38N 39°58' E 023°55'0 0.1
2018-Jul-20 19:27N 39°58' E 023°55'0 0.0
2018-Jul-20 18:58N 39°58' E 023°55'0 0.1
2018-Jul-20 18:29N 39°58' E 023°55'0 0.0
2018-Jul-20 18:00N 39°58' E 023°55'0 0.0
2018-Jul-20 17:30N 39°58' E 023°55'0 0.0
2018-Jul-20 16:58N 39°58' E 023°55'2 4.8
2018-Jul-20 16:30N 39°56' E 023°56'3 3.7
2018-Jul-20 15:48N 39°55' E 023°59'1 2.2
2018-Jul-20 15:30N 39°56' E 023°59'1 2.5
2018-Jul-20 15:00N 39°56' E 024°01'1 3.0
2018-Jul-20 14:30N 39°57' E 024°02'3 5.9
2018-Jul-20 14:00N 39°59' E 024°00'3 5.9
2018-Jul-20 13:30N 40°00' E 024°04'3 5.7
2018-Jul-20 13:00N 40°02' E 024°01'3 5.2
2018-Jul-20 12:30N 40°04' E 024°03'3 6.5
2018-Jul-20 12:00N 40°06' E 024°07'3 6.0
2018-Jul-20 11:30N 40°07' E 024°11'2 4.6
2018-Jul-20 11:00N 40°07' E 024°14'2 4.1
2018-Jul-20 10:30N 40°09' E 024°16'1 2.7
2018-Jul-20 10:00N 40°10' E 024°16'2 4.8
2018-Jul-20 09:30N 40°11' E 024°14'2 4.6
2018-Jul-20 09:00N 40°13' E 024°12'3 5.1
2018-Jul-20 08:30N 40°15' E 024°10'2 3.9
2018-Jul-20 08:00N 40°16' E 024°08'2 3.9
2018-Jul-20 07:30N 40°16' E 024°06'2 4.7
2018-Jul-20 07:00N 40°17' E 024°02'1 2.8
2018-Jul-20 06:30N 40°18' E 024°01'2 4.3
2018-Jul-20 06:00N 40°19' E 023°59'2 4.2
2018-Jul-20 05:30N 40°20' E 023°56'1 0.0
2018-Jul-19 11:59N 40°20' E 023°55'0 0.0
2018-Jul-19 11:16N 40°20' E 023°55'0 0.0
2018-Jul-19 10:59N 40°20' E 023°55'0 0.1
2018-Jul-19 10:27N 40°20' E 023°55'0 0.0
2018-Jul-19 10:00N 40°20' E 023°55'0 0.0
2018-Jul-19 09:30N 40°20' E 023°55'0 0.3
2018-Jul-19 09:00N 40°20' E 023°55'2 3.9
2018-Jul-19 08:30N 40°20' E 023°53'3 6.8
2018-Jul-19 08:00N 40°18' E 023°50'3 6.8
2018-Jul-19 07:30N 40°15' E 023°47'3 5.5
2018-Jul-19 07:00N 40°13' E 023°46'1 0.0
2018-Jul-18 13:30N 40°12' E 023°47'2 3.2
2018-Jul-18 13:00N 40°12' E 023°49'3 5.6
2018-Jul-18 12:30N 40°11' E 023°53'3 5.4
2018-Jul-18 12:00N 40°10' E 023°56'3 5.3
2018-Jul-18 11:29N 40°08' E 023°59'4 3.8
2018-Jul-18 10:30N 40°06' E 024°02'3 5.5
2018-Jul-18 10:01N 40°03' E 024°05'3 6.3
2018-Jul-18 09:30N 40°01' E 024°08'3 5.9
2018-Jul-18 09:00N 39°59' E 024°05'3 6.4
2018-Jul-18 08:30N 39°57' E 024°02'3 5.4
2018-Jul-18 07:54N 39°56' E 023°58'2 5.4
2018-Jul-18 07:30N 39°57' E 023°55'2 0.1
2018-Jul-17 13:46N 39°58' E 023°55'0 0.0
2018-Jul-17 13:27N 39°58' E 023°55'0 0.4
2018-Jul-17 13:00N 39°58' E 023°55'3 5.3
2018-Jul-17 12:30N 39°55' E 023°55'3 6.2
2018-Jul-17 11:59N 39°52' E 023°56'5 6.0
2018-Jul-17 11:04N 39°47' E 023°57'0 7.0
2018-Jul-17 11:00N 39°47' E 023°58'2 4.9
2018-Jul-17 10:30N 39°44' E 023°58'3 5.1
2018-Jul-17 10:00N 39°42' E 023°59'3 5.4
2018-Jul-17 09:30N 39°39' E 023°60'2 4.9
2018-Jul-17 09:00N 39°37' E 024°01'3 5.3
2018-Jul-17 08:26N 39°34' E 024°01'4 5.8
2018-Jul-17 07:47N 39°30' E 024°02'1 5.1
2018-Jul-17 07:30N 39°29' E 024°03'3 5.3
2018-Jul-17 06:59N 39°26' E 024°04'4 0.2
2018-Jul-16 12:06N 39°22' E 024°05'0 3.0
2018-Jul-16 11:59N 39°22' E 024°05'2 4.9
2018-Jul-16 11:30N 39°21' E 024°02'3 6.0
2018-Jul-16 11:00N 39°18' E 024°01'5 5.2
2018-Jul-16 10:06N 39°14' E 023°58'1 6.8
2018-Jul-16 09:59N 39°13' E 023°57'4 7.4
2018-Jul-16 09:30N 39°10' E 023°55'3 0.1
2018-Jul-15 10:14N 39°09' E 023°52'0 0.2
2018-Jul-15 10:01N 39°09' E 023°52'1 2.4
2018-Jul-15 09:30N 39°08' E 023°51'2 4.6
2018-Jul-15 09:00N 39°09' E 023°48'3 5.8
2018-Jul-15 08:30N 39°08' E 023°44'0 0.0
2018-Jul-13 14:13N 39°07' E 023°44'3 4.4
2018-Jul-13 13:30N 39°10' E 023°47'3 5.6
2018-Jul-13 13:01N 39°12' E 023°49'3 5.2
2018-Jul-13 12:30N 39°14' E 023°51'2 4.9
2018-Jul-13 12:00N 39°16' E 023°53'3 5.2
2018-Jul-13 11:30N 39°18' E 023°55'2 3.4
2018-Jul-13 11:00N 39°19' E 023°57'1 2.2
2018-Jul-13 10:30N 39°20' E 023°58'1 2.0
2018-Jul-13 10:01N 39°20' E 023°59'2 3.1
2018-Jul-13 09:30N 39°21' E 024°01'1 2.2
2018-Jul-13 08:52N 39°22' E 024°02'1 1.5
2018-Jul-13 08:30N 39°22' E 024°03'3 0.2
2018-Jul-12 15:32N 39°23' E 024°07'0 5.3
2018-Jul-12 15:30N 39°23' E 024°07'11 5.1
2018-Jul-12 13:20N 39°31' E 024°17'2 5.4
2018-Jul-12 12:59N 39°33' E 024°18'3 5.4
2018-Jul-12 12:30N 39°35' E 024°21'3 5.1
2018-Jul-12 12:00N 39°37' E 024°23'3 5.4
2018-Jul-12 11:29N 39°39' E 024°25'3 5.0
2018-Jul-12 10:59N 39°40' E 024°28'2 3.2
2018-Jul-12 10:30N 39°42' E 024°29'2 4.1
2018-Jul-12 10:00N 39°43' E 024°31'3 5.2
2018-Jul-12 09:30N 39°44' E 024°34'3 5.2
2018-Jul-12 09:00N 39°45' E 024°37'5 5.1
2018-Jul-12 08:05N 39°47' E 024°43'0 4.2
2018-Jul-12 08:00N 39°47' E 024°43'3 3.3
2018-Jul-12 07:05N 39°48' E 024°47'0 3.1
2018-Jul-12 07:00N 39°48' E 024°47'3 3.4
2018-Jul-12 05:59N 39°49' E 024°51'3 5.2
2018-Jul-12 05:30N 39°50' E 024°54'3 5.9
2018-Jul-12 05:00N 39°51' E 024°58'2 4.8
2018-Jul-12 04:30N 39°52' E 025°01'2 3.6
2018-Jul-12 04:00N 39°52' E 025°03'  

Dump ship's entire track history